Tiempo atmosférico en la estación meteorológica de Talavera De La Reina, Toledo (372 m.)



Fecha
DESCASC
Temp. máxima en grados centígrados (hora)
DESCASC
Temp. mínima en grados centígrados (hora)
DESCASC
Temp. media en grados centígrados
DESCASC
Racha de viento máxima en m/sg (hora)
DESCASC
Velocidad máxima media en intervalos de 10 minutos(hora)
DESCASC
Precipitaciones diarias en mm
DESCASC
Precipitaciones de 00:00 a 06:00 en mm
DESCASC
Precipitaciones de 06:00 a 12:00 en mm
DESCASC
Precipitaciones de 12:00 a 18:00 en mm
DESCASC
Precipitaciones de 18:00 a 24:00 en mm
DESCASC
30-11-2020 16.1 (16:30) 6.8 (08:30) 11.5 8.89 (13:40) 5 (14:50) 0 0 0 0 0
29-11-2020 12.3 (16:10) 7.4 (00:00) 9.9 8.33 (07:30) 4.72 (07:40) 2 0 2 0 0
28-11-2020 13.1 (14:50) 6.2 (00:00) 9.7 3.61 (09:00) 2.22 (11:40) 0 0 0 0 0
27-11-2020 12 (16:20) 8.3 (00:00) 10.2 14.17 (13:30) 5.83 (13:20) 0.6 0.2 0.2 0.2 0
26-11-2020 11.6 (16:20) 9.6 (00:00) 10.6 9.44 (12:50) 5 (06:50) 11.8 1.6 5 4 1.2
25-11-2020 13.2 (14:20) 6.1 (00:00) 9.6 8.33 (14:20) 4.44 (11:40) 2.4 0 0 1 1.4
24-11-2020 14.8 (16:40) 2.7 (00:00) 8.8 5 (10:40) 3.06 (11:10) 0 0 0 0 0
23-11-2020 16 (17:00) 3.1 (00:00) 9.5 5 (11:30) 3.06 (10:30) 0 0 0 0 0
22-11-2020 14.8 (15:50) 3.2 (00:00) 9 5.83 (12:40) 3.33 (12:40) 0 0 0 0 0
21-11-2020 16.3 (16:10) 4.1 (00:00) 10.2 8.33 (12:40) 4.72 (12:40) 0 0 0 0 0
20-11-2020 18 (15:20) 6.8 (00:00) 12.4 7.22 (14:10) 4.44 (14:20) 0 0 0 0 0
19-11-2020 19.7 (17:00) 8.8 (00:00) 14.3 6.67 (07:20) 3.61 (11:40) 0 0 0 0 0
18-11-2020 13.5 (16:50) 9.6 (00:00) 11.6 7.78 (13:50) 3.89 (12:50) 0 0 0 0 0
17-11-2020 15.7 (17:00) 8.7 (00:00) 12.2 5.28 (13:00) 3.06 (10:30) 0.2 0.2 0 0 0
16-11-2020 20.9 (16:00) 9.5 (00:00) 15.2 5.56 (17:10) 3.33 (17:00) 0.2 0.2 0 0 0
15-11-2020 17.7 (16:30) 12.6 (00:00) 15.2 3.61 (09:20) 1.94 (09:10) 0.4 0 0.4 0 0
14-11-2020 14.2 (15:00) 11 (00:00) 12.6 5 (15:20) 2.78 (14:40) 1 0 0.8 0 0.2
13-11-2020 16 (16:50) 7.1 (00:00) 11.5 4.72 (13:20) 3.06 (14:40) 0 0 0 0 0
12-11-2020 17.3 (15:30) 7.8 (00:00) 12.5 6.39 (15:30) 3.61 (15:30) 0 0 0 0 0
11-11-2020 15.9 (15:50) 5.4 (00:00) 10.6 6.67 (13:10) 3.61 (13:40) 0.2 0.2 0 0 0
10-11-2020 16.9 (16:20) 6.8 (00:00) 11.8 5.83 (15:20) 3.33 (11:20) 0 0 0 0 0
09-11-2020 19.1 (16:40) 9.5 (00:00) 14.3 5.83 (17:00) 3.33 (17:00) 11.6 11.2 0.4 0 0
08-11-2020 17.2 (17:30) 9.2 (00:00) 13.2 7.5 (10:30) 3.33 (10:30) 1 0 0 0 1
07-11-2020 17.9 (16:00) 9.6 (00:00) 13.8 10.56 (15:30) 6.67 (15:30) 0.6 0.6 0 0 0
06-11-2020 19.3 (16:50) 12.3 (00:00) 15.8 12.22 (11:20) 6.11 (11:00) 3.2 0.8 0.4 0 2
05-11-2020 13.6 (13:40) 9.9 (00:00) 11.8 16.11 (07:20) 7.78 (07:00) 21.8 2.8 6.6 8.4 4
04-11-2020 13.8 (00:00) 10 (00:00) 11.9 13.33 (15:30) 7.22 (12:40) 12.6 0 0.2 2.8 9.6
03-11-2020 19.4 (15:30) 13.3 (00:00) 16.3 10.83 (20:20) 5.83 (20:20) 0.2 0 0.2 0 0
02-11-2020 19.8 (16:30) 10.7 (00:00) 15.2 4.17 (10:30) 2.22 (18:20) 0 0 0 0 0

Gráficas

Temp. máximas Temp. mínimas Temp. medias Precipitaciones Rachas de viento máximas Velocidades máximas media en intervalos de 10 minutos

Datos horarios

Fecha y hora oficial Temperatura (ºC) Velocidad del viento (km/h) Dirección del viento Racha (km/h) Dirección de racha Precipitación (mm) Presión (hPa) Tendencia (hPa) Humedad (%)
2020-12-01 23:00:00 5 3 Norte 6 Este 0 976.2 -- 90
2020-12-01 22:00:00 6.6 3 Sudoeste 8 Noroeste 0 976.5 -- 91
2020-12-01 21:00:00 6.3 3 Oeste 8 Sur 0 976.3 -- 88
2020-12-01 20:00:00 8.1 3 Sur 9 Sur 0 976.4 -- 86
2020-12-01 19:00:00 10.5 0 Calma 3 Oeste 0 976.3 -- 78
2020-12-01 18:00:00 13.9 3 Nordeste 10 Nordeste 0 976.5 -- 67
2020-12-01 17:00:00 15.2 3 Nordeste 8 Nordeste 0 976.8 -- 59
2020-12-01 16:00:00 15.2 4 Este 11 Sudeste 0 977.1 -- 56
2020-12-01 15:00:00 14.7 7 Nordeste 14 Este 0 977.7 -- 56
2020-12-01 14:00:00 13.7 9 Nordeste 17 Este 0 978.4 -- 59
2020-12-01 13:00:00 12.2 7 Este 14 Nordeste 0 979.4 -- 70
2020-12-01 12:00:00 9.9 7 Este 15 Este 0 980.3 -- 79
2020-12-01 11:00:00 7.7 10 Este 17 Este 0 980.3 -- 88
2020-12-01 10:00:00 5.6 8 Este 12 Nordeste 0 980.3 -- 93
2020-12-01 09:00:00 4.2 7 Nordeste 12 Nordeste 0 980.3 -- 93
2020-12-01 08:00:00 4.4 8 Este 13 Este 0 980 -- 93
2020-12-01 07:00:00 4.8 8 Este 14 Nordeste 0 979.7 -- 93
2020-12-01 06:00:00 4.9 7 Este 12 Nordeste 0 979.7 -- 92
2020-12-01 05:00:00 5.9 5 Este 14 Este 0 979.8 -- 91
2020-12-01 04:00:00 5.8 8 Nordeste 12 Este 0 980 -- 92
2020-12-01 03:00:00 6.1 6 Este 11 Este 0 980.2 -- 92
2020-12-01 02:00:00 6.5 4 Este 8 Este 0 980.4 -- 90
2020-12-01 01:00:00 7.1 4 Este 9 Este 0 980.6 -- 89
2020-12-01 00:00:00 7.6 6 Este 8 Sudeste 0 980.4 -- 90
2020-11-30 23:00:00 7.6 3 Este 6 Nordeste 0 979.9 -- 89
2020-11-30 22:00:00 8.9 3 Nordeste 11 Nordeste 0 979.5 -- 84
2020-11-30 21:00:00 9.3 5 Este 13 Este 0 979 -- 85
2020-11-30 20:00:00 10.1 6 Este 8 Este 0 978.5 -- 83
2020-11-30 19:00:00 11.8 4 Norte 13 Este 0 978.3 -- 76
2020-11-30 18:00:00 14.7 8 Este 23 Este 0 977.9 -- 63
2020-11-30 17:00:00 15.5 11 Este 25 Este 0 977.6 -- 62
2020-11-30 16:00:00 15.9 15 Este 32 Este 0 977.6 -- 60
2020-11-30 15:00:00 15.5 14 Este 31 Sudeste 0 978 -- 63
2020-11-30 14:00:00 14.3 18 Sudeste 32 Este 0 978.4 -- 66
2020-11-30 13:00:00 12.4 13 Este 28 Este 0 979 -- 72
2020-11-30 12:00:00 12.1 14 Este 28 Este 0 979.7 -- 72
2020-11-30 11:00:00 9.5 14 Este 23 Este 0 979.3 -- 82
2020-11-30 10:00:00 7 10 Este 18 Este 0 978.7 -- 89
2020-11-30 09:00:00 7.2 8 Este 18 Este 0 978.2 -- 89
2020-11-30 08:00:00 7.2 10 Nordeste 17 Nordeste 0 977.7 -- 89
2020-11-30 07:00:00 8.6 6 Este 22 Este 0 977.3 -- 83
2020-11-30 06:00:00 8.3 7 Nordeste 17 Este 0 976.7 -- 87
2020-11-30 05:00:00 8.9 6 Nordeste 14 Nordeste 0 976.8 -- 86
2020-11-30 04:00:00 9.3 8 Este 18 Este 0 976.9 -- 86
2020-11-30 03:00:00 9.2 8 Este 16 Este 0 976.6 -- 87
2020-11-30 02:00:00 9.3 6 Nordeste 13 Nordeste 0 976.6 -- 87
2020-11-30 01:00:00 9.1 7 Nordeste 14 Este 0 976.4 -- 87
2020-11-30 00:00:00 9.9 11 Este 19 Sudeste 0 976 -- 81
2020-11-29 23:00:00 9.6 7 Este 14 Este 0 975.5 -- 85
2020-11-29 22:00:00 9.5 5 Este 19 Este 0 975 -- 87
2020-11-29 21:00:00 10.1 10 Este 17 Este 0 974.5 -- 85
2020-11-29 20:00:00 9.5 3 Este 14 Nordeste 0 974.6 -- 86
2020-11-29 19:00:00 10.2 6 Nordeste 13 Nordeste 0 974.2 -- 84
2020-11-29 18:00:00 11.3 10 Este 23 Nordeste 0 973.6 -- 80
2020-11-29 17:00:00 11.9 12 Este 24 Nordeste 0 973.2 -- 79
2020-11-29 16:00:00 12.1 11 Este 24 Este 0 973 -- 79
2020-11-29 15:00:00 11.8 12 Este 25 Este 0 973.3 -- 82
2020-11-29 14:00:00 10.9 15 Este 28 Este 0 973.3 -- 85
2020-11-29 13:00:00 9.6 13 Este 28 Este 0 973.7 -- 88
2020-11-29 12:00:00 8.8 15 Este 28 Este 0 973.9 -- 90
2020-11-29 11:00:00 8.2 14 Este 27 Este 0 973.5 -- 92
2020-11-29 10:00:00 7.5 13 Este 27 Este 0.2 972.8 -- 92
2020-11-29 09:00:00 7.7 12 Este 25 Este 1.6 972 -- 91
2020-11-29 08:00:00 8 11 Este 30 Este 0.2 971.1 -- 89
2020-11-29 07:00:00 8 12 Este 26 Este 0 970.3 -- 88
2020-11-29 06:00:00 8 12 Este 21 Este 0 969.6 -- 90
2020-11-29 05:00:00 7.7 9 Este 21 Este 0 969.4 -- 91
2020-11-29 04:00:00 7.6 10 Este 24 Este 0 969.1 -- 91
2020-11-29 03:00:00 7.9 8 Este 18 Nordeste 0 968.9 -- 92
2020-11-29 02:00:00 8.1 8 Este 14 Este 0 969.2 -- 92
2020-11-29 01:00:00 7.8 7 Este 10 Este 0 968.8 -- 92
2020-11-29 00:00:00 7.5 5 Este 7 Nordeste 0 968.3 -- 92
2020-11-28 23:00:00 7.3 2 Nordeste 7 Nordeste 0 967.8 -- 91
2020-11-28 22:00:00 8.2 7 Nordeste 10 Nordeste 0 966.9 -- 91
2020-11-28 21:00:00 9.2 2 Sur 5 Sudoeste 0 967 -- 89
2020-11-28 20:00:00 10.3 2 Nordeste 7 Sudeste 0 966.4 -- 87
2020-11-28 19:00:00 11.5 4 Sur 6 Sur 0 966.1 -- 82
2020-11-28 18:00:00 11.9 3 Noroeste 10 Norte 0 965.5 -- 82
2020-11-28 17:00:00 12.4 3 Sur 5 Oeste 0 964.8 -- 73
2020-11-28 16:00:00 12.6 2 Sudoeste 12 Oeste 0 964.4 -- 72
2020-11-28 15:00:00 12.8 6 Oeste 12 Oeste 0 963.8 -- 73
2020-11-28 14:00:00 11.8 7 Sudoeste 13 Oeste 0 964 -- 80
2020-11-28 13:00:00 10.1 5 Sudoeste 12 Sur 0 964.8 -- 88
2020-11-28 12:00:00 9.1 8 Oeste 12 Oeste 0 965 -- 91
2020-11-28 11:00:00 8.3 4 Noroeste 8 Sudoeste 0 965.1 -- 93
2020-11-28 10:00:00 7.5 4 Sur 10 Sudoeste 0 964.5 -- 93
2020-11-28 09:00:00 7.2 5 Sudoeste 13 Sudoeste 0 963.8 -- 93
2020-11-28 08:00:00 7 0 Calma 5 Sudoeste 0 963.5 -- 94
2020-11-28 07:00:00 6.2 0 Calma 7 Noroeste 0 963.1 -- 93
2020-11-28 06:00:00 7.1 3 Sur 10 Oeste 0 962.8 -- 92
2020-11-28 05:00:00 7.8 5 Oeste 9 Sudoeste 0 963.4 -- 92
2020-11-28 04:00:00 8.8 3 Sudoeste 8 Oeste 0 963.7 -- 91
2020-11-28 03:00:00 9.1 2 Sudoeste 8 Oeste 0 963.6 -- 91
2020-11-28 02:00:00 9.1 5 Oeste 12 Noroeste 0 963.9 -- 91
2020-11-28 01:00:00 9.3 0 Calma 5 Noroeste 0 964 -- 90
2020-11-28 00:00:00 9.6 3 Oeste 7 Sur 0 964 -- 89
2020-11-27 23:00:00 9.9 4 Sur 6 Sur 0 964.1 -- 88
2020-11-27 22:00:00 10.3 0 Calma 15 Este 0 964.4 -- 85
2020-11-27 21:00:00 10.3 8 Este 17 Este 0 964.4 -- 84
2020-11-27 20:00:00 10.5 10 Este 19 Nordeste 0 964.5 -- 84
2020-11-27 19:00:00 10.4 8 Nordeste 20 Este 0 964.4 -- 87
2020-11-27 18:00:00 10.7 8 Este 21 Este 0 964.6 -- 85
2020-11-27 17:00:00 11.4 11 Este 27 Nordeste 0 964.4 -- 84
2020-11-27 16:00:00 11.8 17 Este 35 Este 0 964.3 -- 83
2020-11-27 15:00:00 11.2 16 Este 33 Este 0 964.7 -- 88
2020-11-27 14:00:00 11.1 18 Este 51 Este 0 965.1 -- 85
2020-11-27 13:00:00 11.5 18 Este 36 Este 0.2 965.5 -- 83
2020-11-27 12:00:00 11 12 Este 30 Sudeste 0.2 966.3 -- 84
2020-11-27 11:00:00 11 8 Sudeste 22 Sudeste 0 966 -- 84
2020-11-27 10:00:00 9.7 2 Este 11 Sur 0 965.6 -- 91
2020-11-27 09:00:00 9.4 6 Este 17 Este 0 965.3 -- 90
2020-11-27 08:00:00 10.4 10 Este 22 Este 0 965.4 -- 85
2020-11-27 07:00:00 10.2 10 Este 19 Este 0 965.1 -- 89
2020-11-27 06:00:00 9.7 6 Este 16 Este 0 965.3 -- 93
2020-11-27 05:00:00 9.4 9 Este 16 Este 0 965.6 -- 94
2020-11-27 04:00:00 8.9 6 Nordeste 10 Nordeste 0 966.3 -- 94
2020-11-27 03:00:00 8.4 0 Calma 6 Este 0 966.6 -- 94
2020-11-27 02:00:00 9.2 3 Este 7 Nordeste 0 966.9 -- 94
2020-11-27 01:00:00 9.6 4 Este 8 Nordeste 0.2 967.8 -- 94
2020-11-27 00:00:00 9.7 6 Este 12 Sudeste 0.4 967.7 -- 93
2020-11-26 23:00:00 9.7 4 Este 8 Este 0 967.8 -- 93
2020-11-26 22:00:00 9.9 3 Este 13 Nordeste 0 967.5 -- 92
2020-11-26 21:00:00 9.9 4 Nordeste 9 Nordeste 0.2 967.1 -- 92
2020-11-26 20:00:00 10.2 4 Este 10 Nordeste 0.2 966.6 -- 91
2020-11-26 19:00:00 10.6 8 Nordeste 17 Nordeste 0.4 965.8 -- 90
2020-11-26 18:00:00 11.5 8 Este 18 Este 0.4 965.3 -- 92
2020-11-26 17:00:00 11.5 10 Este 19 Este 0.4 965 -- 92
2020-11-26 16:00:00 11.5 11 Este 26 Este 0 965.1 -- 92
2020-11-26 15:00:00 11.3 13 Este 33 Este 0.8 965.2 -- 93
2020-11-26 14:00:00 11 17 Este 32 Este 2 965.8 -- 92
2020-11-26 13:00:00 10.8 16 Este 34 Este 0.4 966.2 -- 92
2020-11-26 12:00:00 10.4 14 Este 25 Este 0.6 966.9 -- 93
2020-11-26 11:00:00 10.2 12 Este 24 Este 0.6 967.3 -- 92
2020-11-26 10:00:00 9.7 12 Este 25 Este 2.4 967.3 -- 93
2020-11-26 09:00:00 9.7 12 Este 23 Este 0.8 967.2 -- 93
2020-11-26 08:00:00 9.7 13 Este 26 Este 0.2 966.8 -- 91
2020-11-26 07:00:00 9.8 18 Este 31 Nordeste 0.4 966.2 -- 90
2020-11-26 06:00:00 10 16 Este 32 Este 0 966 -- 90
2020-11-26 05:00:00 10.2 15 Este 30 Este 0 966.1 -- 91
2020-11-26 04:00:00 10.4 12 Este 22 Nordeste 0.2 966.4 -- 92
2020-11-26 03:00:00 10.2 9 Este 21 Este 0.8 966.8 -- 92
2020-11-26 02:00:00 10.3 10 Este 18 Nordeste 0.4 967 -- 92
2020-11-26 01:00:00 10.6 10 Este 18 Este 0.2 967.6 -- 91
2020-11-26 00:00:00 10.5 7 Este 12 Este 0.8 967.9 -- 91
2020-11-25 23:00:00 10.5 6 Este 13 Nordeste 0 967.8 -- 91
2020-11-25 22:00:00 10.6 6 Este 15 Este 0.2 967.6 -- 89
2020-11-25 21:00:00 11 8 Este 17 Este 0 967.6 -- 88
2020-11-25 20:00:00 10.7 6 Este 10 Nordeste 0.2 967.5 -- 90
2020-11-25 19:00:00 10.7 8 Este 12 Nordeste 0.2 967.3 -- 90
2020-11-25 18:00:00 11.3 3 Sur 13 Este 0.8 967.6 -- 87
2020-11-25 17:00:00 11.7 9 Este 18 Este 0.2 967.5 -- 84
2020-11-25 16:00:00 12.1 8 Este 16 Este 0 968.1 -- 79
2020-11-25 15:00:00 12.6 8 Este 30 Este 0 968.8 -- 71
2020-11-25 14:00:00 12.8 11 Este 21 Este 0 969.9 -- 69
2020-11-25 13:00:00 12 12 Este 23 Este 0 971.2 -- 69
2020-11-25 12:00:00 10.7 12 Este 27 Este 0 972 -- 72
2020-11-25 11:00:00 9.1 12 Este 23 Nordeste 0 972.3 -- 79
2020-11-25 10:00:00 7.3 8 Este 14 Nordeste 0 972.5 -- 87
2020-11-25 09:00:00 6.2 9 Este 14 Este 0 972.6 -- 88
2020-11-25 08:00:00 6.3 9 Este 17 Este 0 972.8 -- 88
2020-11-25 07:00:00 6.6 8 Este 16 Este 0 973 -- 87
2020-11-25 06:00:00 6.4 8 Este 14 Nordeste 0 973.2 -- 88
2020-11-25 05:00:00 6.6 9 Nordeste 16 Nordeste 0 973.6 -- 87
2020-11-25 04:00:00 7.3 9 Este 14 Este 0 973.9 -- 86
2020-11-25 03:00:00 7 7 Este 13 Este 0 974.3 -- 89
2020-11-25 02:00:00 7.1 6 Este 13 Este 0 974.9 -- 89
2020-11-25 01:00:00 6.9 5 Este 9 Nordeste 0 975.5 -- 88
2020-11-25 00:00:00 6.5 6 Este 12 Nordeste 0 975.7 -- 89
2020-11-24 23:00:00 6.1 3 Nordeste 6 Sur 0 976.1 -- 90
2020-11-24 22:00:00 5.3 0 Calma 4 Noroeste 0 976.5 -- 87
2020-11-24 21:00:00 6.6 0 Calma 4 Oeste 0 976.8 -- 84
2020-11-24 20:00:00 8.1 3 Sur 6 Sudoeste 0 976.9 -- 83
2020-11-24 19:00:00 10.1 3 Oeste 9 Norte 0 976.8 -- 72
2020-11-24 18:00:00 13.5 5 Oeste 10 Sudoeste 0 976.8 -- 63
2020-11-24 17:00:00 14.4 3 Sur 7 Sudoeste 0 976.8 -- 53
2020-11-24 16:00:00 13.8 2 Oeste 8 Este 0 977.1 -- 54
2020-11-24 15:00:00 12.4 4 Este 9 Nordeste 0 977.9 -- 62
2020-11-24 14:00:00 11.5 9 Este 17 Nordeste 0 978.9 -- 64
2020-11-24 13:00:00 10.1 9 Este 17 Este 0 980 -- 69
2020-11-24 12:00:00 7.4 9 Este 17 Nordeste 0 981.1 -- 77
2020-11-24 11:00:00 5.6 10 Este 18 Nordeste 0 981.4 -- 86
2020-11-24 10:00:00 4.1 8 Este 13 Este 0 981.4 -- 91
2020-11-24 09:00:00 3.2 6 Este 10 Este 0 980.9 -- 92
2020-11-24 08:00:00 2.8 8 Nordeste 11 Nordeste 0 980.7 -- 92
2020-11-24 07:00:00 3 6 Este 13 Este 0 980.5 -- 91
2020-11-24 06:00:00 3.2 6 Este 11 Este 0 980.6 -- 92
2020-11-24 05:00:00 3.5 6 Este 14 Este 0 980.8 -- 91
2020-11-24 04:00:00 4.4 7 Este 16 Este 0 981 -- 90
2020-11-24 03:00:00 4.5 6 Este 10 Este 0 981.2 -- 91
2020-11-24 02:00:00 4.6 5 Este 11 Nordeste 0 981.7 -- 90
2020-11-24 01:00:00 5.2 7 Este 11 Este 0 982.1 -- 90
2020-11-24 00:00:00 5.9 6 Este 8 Este 0 982.3 -- 89
2020-11-23 23:00:00 6.8 6 Este 9 Nordeste 0 982.4 -- 88
2020-11-23 22:00:00 7.4 6 Nordeste 9 Nordeste 0 982.4 -- 88
2020-11-23 21:00:00 7.4 5 Este 6 Nordeste 0 982.3 -- 87
2020-11-23 20:00:00 8.5 0 Calma 4 Nordeste 0 982 -- 81
2020-11-23 19:00:00 11.2 0 Calma 5 Sudeste 0 981.8 -- 70
2020-11-23 18:00:00 14.7 4 Sudeste 8 Sudeste 0 981.6 -- 55
2020-11-23 17:00:00 16 2 Sudeste 9 Este 0 981.8 -- 51
2020-11-23 16:00:00 15.6 5 Este 14 Este 0 982.1 -- 49
2020-11-23 15:00:00 14.9 6 Este 13 Este 0 982.4 -- 55
2020-11-23 14:00:00 13.6 8 Este 16 Este 0 983.2 -- 61
2020-11-23 13:00:00 11.6 6 Este 15 Nordeste 0 984 -- 68
2020-11-23 12:00:00 9 9 Este 18 Nordeste 0 984.8 -- 79
2020-11-23 11:00:00 6.4 10 Este 18 Nordeste 0 984.9 -- 86
2020-11-23 10:00:00 4.8 9 Este 17 Este 0 984.8 -- 90
2020-11-23 09:00:00 3.2 8 Este 14 Nordeste 0 984.4 -- 92
2020-11-23 08:00:00 3.3 8 Este 15 Nordeste 0 984.1 -- 92
2020-11-23 07:00:00 3.4 8 Este 14 Este 0 983.9 -- 92
2020-11-23 06:00:00 3.7 8 Este 13 Nordeste 0 983.7 -- 91
2020-11-23 05:00:00 3.6 7 Este 12 Nordeste 0 983.6 -- 92
2020-11-23 04:00:00 4.2 7 Este 11 Este 0 983.8 -- 91
2020-11-23 03:00:00 4.8 6 Este 12 Este 0 983.8 -- 91
2020-11-23 02:00:00 5 6 Este 11 Nordeste 0 984 -- 91
2020-11-23 01:00:00 5.5 6 Este 11 Este 0 984.1 -- 90
2020-11-23 00:00:00 5.9 6 Este 12 Nordeste 0 984 -- 90
2020-11-22 23:00:00 6.2 9 Nordeste 13 Este 0 984 -- 90
2020-11-22 22:00:00 5.9 3 Este 6 Este 0 983.7 -- 88
2020-11-22 21:00:00 6.9 2 Nordeste 4 Nordeste 0 983.6 -- 86
2020-11-22 20:00:00 8.2 0 Calma 3 Noroeste 0 983.2 -- 80
2020-11-22 19:00:00 10.8 0 Calma 6 Nordeste 0 982.8 -- 72
2020-11-22 18:00:00 13.6 3 Este 10 Este 0 982.7 -- 62
2020-11-22 17:00:00 14.8 6 Este 12 Este 0 982.6 -- 54
2020-11-22 16:00:00 14.8 7 Nordeste 14 Este 0 982.8 -- 56
2020-11-22 15:00:00 14.2 7 Este 17 Este 0 983.3 -- 60
2020-11-22 14:00:00 13.3 7 Este 17 Este 0 984 -- 63
2020-11-22 13:00:00 11.7 10 Este 21 Este 0 984.8 -- 65
2020-11-22 12:00:00 10 9 Este 18 Este 0 985.7 -- 70
2020-11-22 11:00:00 8 9 Este 18 Este 0 985.8 -- 74
2020-11-22 10:00:00 5.2 8 Este 15 Nordeste 0 985.6 -- 83
2020-11-22 09:00:00 3.5 7 Este 13 Este 0 985.2 -- 86
2020-11-22 08:00:00 3.3 6 Este 10 Este 0 984.9 -- 85
2020-11-22 07:00:00 3.6 8 Este 12 Este 0 984.8 -- 83
2020-11-22 06:00:00 3.6 6 Este 9 Este 0 984.5 -- 82
2020-11-22 05:00:00 4.1 3 Este 10 Nordeste 0 984.5 -- 79
2020-11-22 04:00:00 4.8 4 Nordeste 12 Nordeste 0 984.4 -- 75
2020-11-22 03:00:00 5.5 6 Nordeste 12 Nordeste 0 984.3 -- 73
2020-11-22 02:00:00 5.4 5 Este 14 Nordeste 0 984.3 -- 76
2020-11-22 01:00:00 6.2 9 Nordeste 17 Este 0 984.4 -- 72
2020-11-22 00:00:00 6.9 9 Nordeste 17 Nordeste 0 984.1 -- 70
2020-11-21 23:00:00 7.6 7 Este 13 Nordeste 0 984 -- 69
2020-11-21 22:00:00 7.1 4 Nordeste 8 Nordeste 0 983.8 -- 73
2020-11-21 21:00:00 7.9 4 Nordeste 7 Este 0 983.5 -- 70
2020-11-21 20:00:00 9 5 Este 7 Nordeste 0 983.3 -- 70
2020-11-21 19:00:00 10.8 3 Nordeste 9 Nordeste 0 983.1 -- 62
2020-11-21 18:00:00 14.4 6 Este 18 Este 0 982.5 -- 48
2020-11-21 17:00:00 16 12 Este 23 Este 0 982.1 -- 38
2020-11-21 16:00:00 16.2 11 Este 21 Nordeste 0 982.1 -- 36
2020-11-21 15:00:00 15.9 13 Este 25 Este 0 982.5 -- 34
2020-11-21 14:00:00 15 12 Este 26 Este 0 983.2 -- 41
2020-11-21 13:00:00 13.9 13 Este 30 Este 0 983.9 -- 38
2020-11-21 12:00:00 11.9 8 Este 19 Este 0 984.6 -- 50
2020-11-21 11:00:00 9.3 9 Este 17 Este 0 984.5 -- 66
2020-11-21 10:00:00 6.1 9 Nordeste 18 Nordeste 0 984.2 -- 81
2020-11-21 09:00:00 4.4 11 Nordeste 19 Nordeste 0 983.4 -- 86
2020-11-21 08:00:00 4.2 8 Este 17 Nordeste 0 983.3 -- 85
2020-11-21 07:00:00 4.7 10 Este 15 Este 0 982.9 -- 84
2020-11-21 06:00:00 4.5 9 Nordeste 14 Nordeste 0 983 -- 85
2020-11-21 05:00:00 5.1 5 Este 16 Este 0 983.2 -- 83
2020-11-21 04:00:00 5.2 9 Este 13 Este 0 983.5 -- 85
2020-11-21 03:00:00 6 8 Este 16 Este 0 983.6 -- 83
2020-11-21 02:00:00 6.7 7 Este 15 Nordeste 0 983.7 -- 80
2020-11-21 01:00:00 6.3 6 Este 15 Este 0 983.8 -- 85
2020-11-21 00:00:00 7 8 Este 13 Nordeste 0 983.8 -- 84
2020-11-20 23:00:00 7 5 Este 12 Nordeste 0 983.7 -- 86
2020-11-20 22:00:00 7.3 6 Nordeste 10 Nordeste 0 983.6 -- 88
2020-11-20 21:00:00 8.5 2 Este 10 Sudoeste 0 983.4 -- 82
2020-11-20 20:00:00 9.7 2 Sudeste 7 Nordeste 0 983.4 -- 75
2020-11-20 19:00:00 12 5 Norte 7 Nordeste 0 983.2 -- 66
2020-11-20 18:00:00 16.6 4 Sudeste 23 Este 0 983.3 -- 44
2020-11-20 17:00:00 17.6 12 Este 23 Este 0 983.4 -- 39
2020-11-20 16:00:00 17.8 12 Este 25 Este 0 983.6 -- 36
2020-11-20 15:00:00 17.8 12 Este 26 Sudeste 0 984.2 -- 38
2020-11-20 14:00:00 16.8 13 Este 26 Este 0 984.9 -- 47
2020-11-20 13:00:00 14.9 14 Este 24 Este 0 986 -- 61
2020-11-20 12:00:00 12.9 9 Este 19 Este 0 986.5 -- 69
2020-11-20 11:00:00 11.6 12 Este 19 Este 0 986.6 -- 76
2020-11-20 10:00:00 8.9 6 Este 13 Este 0 986.7 -- 90
2020-11-20 09:00:00 7.5 9 Nordeste 14 Este 0 986.4 -- 92
2020-11-20 08:00:00 7.6 9 Nordeste 15 Nordeste 0 986.5 -- 91
2020-11-20 07:00:00 7.9 8 Este 13 Este 0 986.4 -- 90
2020-11-20 06:00:00 8.1 6 Este 10 Este 0 986.4 -- 91
2020-11-20 05:00:00 8.5 3 Este 9 Este 0 986.9 -- 88
2020-11-20 04:00:00 9.7 3 Este 12 Nordeste 0 987 -- 88
2020-11-20 03:00:00 10.2 6 Este 15 Nordeste 0 987 -- 88
2020-11-20 02:00:00 9.2 6 Este 15 Nordeste 0 987.5 -- 93
2020-11-20 01:00:00 8.2 2 Nordeste 8 Noroeste 0 987.7 -- 92
2020-11-20 00:00:00 8.9 2 Este 5 Sudeste 0 988 -- 92
2020-11-19 23:00:00 9.5 4 Oeste 5 Oeste 0 987.9 -- 90
2020-11-19 22:00:00 10.7 4 Sudoeste 13 Sudoeste 0 987.5 -- 90
2020-11-19 21:00:00 11.7 2 Nordeste 8 Norte 0 987.2 -- 88
2020-11-19 20:00:00 13 2 Oeste 6 Sur 0 987 -- 83
2020-11-19 19:00:00 15.7 3 Este 9 Norte 0 986.7 -- 77
2020-11-19 18:00:00 18.7 3 Norte 9 Nordeste 0 986.4 -- 68
2020-11-19 17:00:00 19.7 5 Nordeste 13 Nordeste 0 986.1 -- 60
2020-11-19 16:00:00 19.1 8 Nordeste 14 Nordeste 0 986.5 -- 65
2020-11-19 15:00:00 17.3 9 Nordeste 16 Nordeste 0 986.7 -- 74
2020-11-19 14:00:00 14.7 7 Nordeste 14 Este 0 987.5 -- 85
2020-11-19 13:00:00 11.9 9 Este 19 Este 0 988.7 -- 91
2020-11-19 12:00:00 11.2 11 Este 24 Este 0 988.7 -- 95
2020-11-19 11:00:00 10.1 11 Este 18 Nordeste 0 988.4 -- 95
2020-11-19 10:00:00 9.9 10 Nordeste 15 Este 0 987.7 -- 95
2020-11-19 09:00:00 10 6 Este 14 Este 0 987 -- 95
2020-11-19 08:00:00 10.2 9 Este 24 Este 0 986.6 -- 95
2020-11-19 07:00:00 10.4 9 Este 19 Este 0 986 -- 95
2020-11-19 06:00:00 10.5 8 Este 19 Este 0 985.5 -- 95
2020-11-19 05:00:00 10.6 10 Este 19 Nordeste 0 985.4 -- 95
2020-11-19 04:00:00 11 9 Este 20 Este 0 985.4 -- 95
2020-11-19 03:00:00 11.1 11 Este 19 Este 0 985.3 -- 95
2020-11-19 02:00:00 11.6 7 Este 18 Este 0 985.5 -- 94
2020-11-19 01:00:00 11.7 10 Este 19 Sudeste 0 985.6 -- 94
2020-11-19 00:00:00 11.9 8 Este 17 Este 0 985.6 -- 94
2020-11-18 23:00:00 12 10 Este 18 Este 0 985.6 -- 92
2020-11-18 22:00:00 12.3 10 Este 17 Este 0 985.2 -- 91
2020-11-18 21:00:00 12.5 6 Este 14 Este 0 984.9 -- 91
2020-11-18 20:00:00 12.7 7 Este 12 Nordeste 0 984.5 -- 90
2020-11-18 19:00:00 12.8 7 Nordeste 15 Nordeste 0 984.1 -- 90
2020-11-18 18:00:00 13.2 9 Este 17 Nordeste 0 983.6 -- 89
2020-11-18 17:00:00 13.3 10 Este 18 Este 0 983.7 -- 88
2020-11-18 16:00:00 13.4 9 Este 18 Nordeste 0 983.9 -- 89
2020-11-18 15:00:00 12.9 10 Este 21 Este 0 984.2 -- 91
2020-11-18 14:00:00 12.5 10 Este 28 Este 0 984.6 -- 91
2020-11-18 13:00:00 11.7 12 Este 22 Sudeste 0 985.3 -- 92
2020-11-18 12:00:00 11.1 11 Este 21 Este 0 985.6 -- 94
2020-11-18 11:00:00 10.3 13 Este 23 Este 0 985.6 -- 95
2020-11-18 10:00:00 10.1 9 Este 23 Este 0 985.5 -- 95
2020-11-18 09:00:00 9.9 11 Este 21 Este 0 984.9 -- 95
2020-11-18 08:00:00 9.9 10 Este 21 Este 0 984.5 -- 95
2020-11-18 07:00:00 9.6 12 Este 23 Este 0 984.3 -- 95
2020-11-18 06:00:00 10.1 9 Este 22 Este 0 984.1 -- 95
2020-11-18 05:00:00 10.2 10 Este 24 Este 0 984.1 -- 95
2020-11-18 04:00:00 10.4 9 Este 19 Sudeste 0 984 -- 95
2020-11-18 03:00:00 10.7 10 Este 18 Este 0 984 -- 95
2020-11-18 02:00:00 11.1 9 Este 22 Este 0 984.2 -- 95
2020-11-18 01:00:00 11.9 8 Este 21 Este 0 984.3 -- 95
2020-11-18 00:00:00 12 10 Este 16 Este 0 984.4 -- 95
2020-11-17 23:00:00 12.5 7 Este 15 Este 0 984.4 -- 94
2020-11-17 22:00:00 12.8 7 Este 18 Este 0 984 -- 94
2020-11-17 21:00:00 12.8 7 Este 16 Este 0 983.9 -- 94
2020-11-17 20:00:00 12.6 8 Este 16 Este 0 983.5 -- 94
2020-11-17 19:00:00 12.7 5 Este 9 Nordeste 0 983.2 -- 90
2020-11-17 18:00:00 14.6 5 Este 10 Este 0 982.8 -- 86
2020-11-17 17:00:00 15.6 6 Este 17 Este 0 982.8 -- 82
2020-11-17 16:00:00 15.2 10 Este 15 Este 0 982.9 -- 83
2020-11-17 15:00:00 14.6 9 Sudeste 18 Sudeste 0 983.1 -- 85
2020-11-17 14:00:00 14.3 9 Sudeste 18 Este 0 983.5 -- 84
2020-11-17 13:00:00 12.6 10 Este 19 Sudeste 0 984.1 -- 91
2020-11-17 12:00:00 11.7 9 Este 17 Este 0 984.8 -- 93
2020-11-17 11:00:00 11.1 10 Este 19 Este 0 984.7 -- 95
2020-11-17 10:00:00 10.6 8 Este 12 Este 0 984.5 -- 95
2020-11-17 09:00:00 10.4 6 Este 13 Este 0 983.7 -- 95
2020-11-17 08:00:00 10.3 6 Este 12 Nordeste 0 983.3 -- 95
2020-11-17 07:00:00 10 5 Este 10 Este 0 982.9 -- 95
2020-11-17 06:00:00 9.9 6 Este 12 Este 0 982.5 -- 95
2020-11-17 05:00:00 9.9 6 Este 12 Este 0 982.5 -- 95
2020-11-17 04:00:00 9.2 6 Este 9 Este 0.2 982.8 -- 94
2020-11-17 03:00:00 9.3 6 Este 11 Este 0 982.7 -- 94
2020-11-17 02:00:00 8.9 4 Nordeste 7 Nordeste 0 982.6 -- 93
2020-11-17 01:00:00 9 0 Calma 4 Norte 0 982.7 -- 92
2020-11-17 00:00:00 9.8 2 Este 5 Este 0 982.8 -- 92
2020-11-16 23:00:00 9.8 0 Calma 4 Nordeste 0 982.6 -- 91
2020-11-16 22:00:00 11 0 Calma 4 Sudeste 0 982.3 -- 90
2020-11-16 21:00:00 12 0 Calma 5 Noroeste 0 981.8 -- 88
2020-11-16 20:00:00 13.3 3 Noroeste 7 Sudoeste 0 981.3 -- 85
2020-11-16 19:00:00 15.5 3 Oeste 10 Oeste 0 980.6 -- 81
2020-11-16 18:00:00 18.4 5 Noroeste 20 Oeste 0 980.3 -- 73
2020-11-16 17:00:00 20.1 12 Noroeste 19 Oeste 0 980.2 -- 64
2020-11-16 16:00:00 20.8 8 Noroeste 17 Noroeste 0 980.1 -- 64
2020-11-16 15:00:00 19.9 4 Oeste 11 Noroeste 0 980.4 -- 67
2020-11-16 14:00:00 18 6 Norte 10 Nordeste 0 980.9 -- 77
2020-11-16 13:00:00 17.5 3 Sudoeste 10 Nordeste 0 980.9 -- 83
2020-11-16 12:00:00 16.6 3 Este 11 Sur 0 981.1 -- 88
2020-11-16 11:00:00 14.9 3 Sur 8 Este 0 980.8 -- 95
2020-11-16 10:00:00 13.3 2 Nordeste 10 Este 0 980.2 -- 95
2020-11-16 09:00:00 12.7 3 Este 9 Este 0 979.7 -- 95
2020-11-16 08:00:00 12.8 2 Noroeste 5 Sur 0 979 -- 94
2020-11-16 07:00:00 13.1 4 Este 6 Este 0 978.8 -- 95
2020-11-16 06:00:00 12.4 3 Este 6 Este 0 978.5 -- 94
2020-11-16 05:00:00 12.7 0 Calma 5 Oeste 0 978.2 -- 94
2020-11-16 04:00:00 13.3 0 Calma 6 Sudeste 0 978.4 -- 93
2020-11-16 03:00:00 13.7 4 Norte 8 Norte 0 978.6 -- 93
2020-11-16 02:00:00 14.4 3 Noroeste 8 Sur 0.2 978.9 -- 93
2020-11-16 01:00:00 14.4 0 Calma 12 Sudoeste 0 978.9 -- 93
2020-11-16 00:00:00 14.4 5 Oeste 9 Noroeste 0 978.8 -- 93
2020-11-15 23:00:00 14.3 3 Sudeste 5 Sudeste 0 978.4 -- 93
2020-11-15 22:00:00 14.7 0 Calma 5 Sudoeste 0 978.1 -- 91
2020-11-15 21:00:00 15.2 0 Calma 4 Este 0 978.4 -- 91
2020-11-15 20:00:00 15.6 2 Este 5 Nordeste 0 978.1 -- 90
2020-11-15 19:00:00 16.3 2 Nordeste 7 Sur 0 977.8 -- 88
2020-11-15 18:00:00 17.1 0 Calma 7 Sur 0 978.1 -- 86
2020-11-15 17:00:00 17.5 4 Oeste 9 Oeste 0 977.8 -- 83
2020-11-15 16:00:00 17.4 4 Noroeste 10 Noroeste 0 977.7 -- 86
2020-11-15 15:00:00 16.9 4 Noroeste 8 Noroeste 0 977.9 -- 90
2020-11-15 14:00:00 16.2 3 Sudeste 6 Oeste 0 978.2 -- 90
2020-11-15 13:00:00 15.6 2 Sudeste 10 Este 0 978.8 -- 90
2020-11-15 12:00:00 14.3 5 Nordeste 8 Este 0 979 -- 93
2020-11-15 11:00:00 13.8 3 Este 9 Nordeste 0 979 -- 94
2020-11-15 10:00:00 13.2 3 Este 13 Nordeste 0 978.9 -- 94
2020-11-15 09:00:00 12.9 5 Este 10 Nordeste 0 978.2 -- 94
2020-11-15 08:00:00 12.9 3 Nordeste 9 Este 0 977.8 -- 94
2020-11-15 07:00:00 12.8 5 Nordeste 9 Sur 0.4 977.6 -- 94
2020-11-15 06:00:00 12.8 4 Este 7 Nordeste 0 977.4 -- 94
2020-11-15 05:00:00 12.7 4 Nordeste 8 Nordeste 0 977.5 -- 94
2020-11-15 04:00:00 12.7 0 Calma 4 Este 0 977.9 -- 93
2020-11-15 03:00:00 12.7 0 Calma 4 Noroeste 0 978.2 -- 93
2020-11-15 02:00:00 12.8 2 Sudeste 5 Sudeste 0 978.3 -- 93
2020-11-15 01:00:00 12.8 3 Este 8 Nordeste 0 978.5 -- 93
2020-11-15 00:00:00 13.2 4 Nordeste 6 Este 0 978.8 -- 93
2020-11-14 23:00:00 13.3 3 Este 5 Este 0 978.8 -- 93
2020-11-14 22:00:00 13.2 3 Nordeste 7 Nordeste 0.2 978.5 -- 92
2020-11-14 21:00:00 13.5 2 Norte 4 Nordeste 0 978.2 -- 91
2020-11-14 20:00:00 13.5 2 Nordeste 6 Este 0 977.9 -- 90
2020-11-14 19:00:00 13.7 2 Este 7 Nordeste 0 977.4 -- 89
2020-11-14 18:00:00 13.8 4 Nordeste 11 Nordeste 0 977.1 -- 89
2020-11-14 17:00:00 14.1 6 Este 12 Nordeste 0 977 -- 88
2020-11-14 16:00:00 14.1 6 Este 18 Este 0 976.8 -- 86
2020-11-14 15:00:00 14.2 8 Este 17 Este 0 977 -- 85
2020-11-14 14:00:00 13.5 9 Este 16 Este 0 977.3 -- 88
2020-11-14 13:00:00 13 7 Este 13 Este 0 978 -- 90
2020-11-14 12:00:00 12.3 6 Este 13 Nordeste 0 978.1 -- 91
2020-11-14 11:00:00 11.8 6 Este 12 Este 0.2 978.1 -- 91
2020-11-14 10:00:00 11.4 5 Este 10 Nordeste 0.2 977.8 -- 92
2020-11-14 09:00:00 11.2 7 Este 12 Este 0.2 977.3 -- 91
2020-11-14 08:00:00 11.3 6 Este 12 Nordeste 0.2 976.8 -- 89
2020-11-14 07:00:00 11.3 6 Este 12 Nordeste 0 976.4 -- 88
2020-11-14 06:00:00 11.4 5 Este 11 Nordeste 0 976.4 -- 88
2020-11-14 05:00:00 11 5 Este 9 Nordeste 0 976.5 -- 89
2020-11-14 04:00:00 11.1 5 Este 12 Nordeste 0 976.8 -- 90
2020-11-14 03:00:00 11.1 6 Este 10 Este 0 977 -- 89
2020-11-14 02:00:00 11.1 5 Este 10 Nordeste 0 977.4 -- 89
2020-11-14 01:00:00 11.2 5 Este 8 Este 0 977.8 -- 89
2020-11-14 00:00:00 11.4 4 Este 8 Nordeste 0 978.2 -- 89
2020-11-13 23:00:00 11.3 4 Nordeste 8 Este 0 978 -- 89
2020-11-13 22:00:00 11.3 4 Este 6 Nordeste 0 977.6 -- 89
2020-11-13 21:00:00 11.3 4 Este 7 Este 0 977.5 -- 88
2020-11-13 20:00:00 12.2 2 Este 5 Nordeste 0 977.4 -- 85
2020-11-13 19:00:00 13.6 2 Este 5 Sudeste 0 976.9 -- 79
2020-11-13 18:00:00 15.2 4 Este 8 Sudeste 0 976.6 -- 68
2020-11-13 17:00:00 15.9 5 Este 12 Nordeste 0 976.4 -- 66
2020-11-13 16:00:00 15.6 6 Este 17 Este 0 976.4 -- 67
2020-11-13 15:00:00 15.3 8 Este 17 Nordeste 0 976.9 -- 69
2020-11-13 14:00:00 14.8 9 Nordeste 17 Este 0 977.7 -- 72
2020-11-13 13:00:00 13.9 8 Este 17 Este 0 978.5 -- 74
2020-11-13 12:00:00 12.1 8 Este 16 Este 0 978.8 -- 82
2020-11-13 11:00:00 11 8 Este 16 Nordeste 0 978.6 -- 86
2020-11-13 10:00:00 8.3 9 Este 15 Nordeste 0 978.5 -- 93
2020-11-13 09:00:00 7.2 6 Este 12 Nordeste 0 977.8 -- 93
2020-11-13 08:00:00 7.2 6 Nordeste 11 Este 0 977.4 -- 93
2020-11-13 07:00:00 7.2 4 Este 10 Este 0 977.1 -- 93
2020-11-13 06:00:00 7.6 6 Este 15 Nordeste 0 976.8 -- 93
2020-11-13 05:00:00 7.7 6 Nordeste 11 Este 0 976.7 -- 93
2020-11-13 04:00:00 8 4 Este 9 Nordeste 0 976.9 -- 92
2020-11-13 03:00:00 8.2 4 Este 8 Este 0 976.9 -- 92
2020-11-13 02:00:00 8.1 3 Este 6 Este 0 977.2 -- 91
2020-11-13 01:00:00 9 2 Este 10 Nordeste 0 977.5 -- 90
2020-11-13 00:00:00 9.7 5 Este 10 Este 0 977.5 -- 89
2020-11-12 23:00:00 10.4 5 Este 9 Nordeste 0 977.1 -- 88
2020-11-12 22:00:00 9.8 4 Este 7 Nordeste 0 977 -- 88
2020-11-12 21:00:00 10.9 2 Este 8 Nordeste 0 977.2 -- 85
2020-11-12 20:00:00 11.6 5 Nordeste 9 Nordeste 0 977.4 -- 83
2020-11-12 19:00:00 13 5 Nordeste 16 Este 0 976.9 -- 77
2020-11-12 18:00:00 15.6 8 Este 20 Este 0 976.5 -- 67
2020-11-12 17:00:00 16.6 9 Este 22 Nordeste 0 976.5 -- 63
2020-11-12 16:00:00 16.9 10 Este 23 Sudeste 0 976.8 -- 60
2020-11-12 15:00:00 17 11 Este 18 Este 0 977.5 -- 63
2020-11-12 14:00:00 14.8 9 Este 17 Este 0 978.3 -- 75
2020-11-12 13:00:00 13.3 9 Este 19 Este 0 979.5 -- 78
2020-11-12 12:00:00 12.1 10 Este 17 Nordeste 0 980.3 -- 85
2020-11-12 11:00:00 10 8 Este 15 Nordeste 0 980.2 -- 91
2020-11-12 10:00:00 8.9 8 Este 14 Este 0 980.1 -- 92
2020-11-12 09:00:00 8.2 6 Este 10 Este 0 980 -- 93
2020-11-12 08:00:00 7.8 4 Este 12 Nordeste 0 979.8 -- 93
2020-11-12 07:00:00 8 7 Nordeste 13 Este 0 979.5 -- 93
2020-11-12 06:00:00 8.4 8 Este 13 Este 0 979.3 -- 92
2020-11-12 05:00:00 8.7 5 Este 12 Este 0 979.4 -- 93
2020-11-12 04:00:00 8.6 5 Este 9 Este 0 979.9 -- 92
2020-11-12 03:00:00 9 5 Este 11 Nordeste 0 980.4 -- 92
2020-11-12 02:00:00 9.4 6 Este 12 Nordeste 0 980.5 -- 93
2020-11-12 01:00:00 9 4 Este 8 Nordeste 0 980.9 -- 92
2020-11-12 00:00:00 9.2 5 Este 11 Nordeste 0 980.6 -- 92
2020-11-11 23:00:00 9.7 6 Nordeste 12 Este 0 980.6 -- 92
2020-11-11 22:00:00 10.3 4 Este 9 Nordeste 0 980.3 -- 90
2020-11-11 21:00:00 10.9 5 Este 11 Nordeste 0 980 -- 89
2020-11-11 20:00:00 11.6 6 Nordeste 11 Nordeste 0 980.1 -- 88
2020-11-11 19:00:00 12.3 4 Nordeste 10 Sudeste 0 979.8 -- 85
2020-11-11 18:00:00 14.8 5 Este 13 Este 0 979.8 -- 75
2020-11-11 17:00:00 15.2 6 Este 17 Este 0 979.6 -- 72
2020-11-11 16:00:00 15.8 8 Este 17 Este 0 979.8 -- 69
2020-11-11 15:00:00 15.8 9 Este 23 Este 0 980 -- 70
2020-11-11 14:00:00 14.7 10 Este 24 Este 0 980.7 -- 71
2020-11-11 13:00:00 13.4 12 Este 22 Este 0 981.4 -- 79
2020-11-11 12:00:00 10.4 10 Este 19 Nordeste 0 982.3 -- 92
2020-11-11 11:00:00 7.5 10 Nordeste 17 Nordeste 0 982.5 -- 93
2020-11-11 10:00:00 6.8 9 Este 17 Nordeste 0 982.7 -- 93
2020-11-11 09:00:00 5.5 9 Nordeste 13 Nordeste 0 982.4 -- 94
2020-11-11 08:00:00 5.5 9 Nordeste 15 Nordeste 0 982.2 -- 94
2020-11-11 07:00:00 5.6 9 Este 13 Nordeste 0 982.1 -- 93
2020-11-11 06:00:00 6 8 Este 15 Nordeste 0 982.5 -- 93
2020-11-11 05:00:00 6.3 6 Este 12 Nordeste 0 982.4 -- 93
2020-11-11 04:00:00 7.2 7 Este 13 Este 0 982.7 -- 93
2020-11-11 03:00:00 7.8 6 Este 11 Este 0 983 -- 93
2020-11-11 02:00:00 8 4 Este 12 Este 0.2 983.3 -- 93
2020-11-11 01:00:00 8.4 5 Este 11 Este 0 983.5 -- 92
2020-11-11 00:00:00 9 5 Este 9 Este 0 983.3 -- 92
2020-11-10 23:00:00 9.7 5 Este 11 Este 0 983.2 -- 91
2020-11-10 22:00:00 10.5 5 Este 9 Nordeste 0 983.2 -- 91
2020-11-10 21:00:00 11.2 3 Este 7 Nordeste 0 982.9 -- 89
2020-11-10 20:00:00 12.3 2 Nordeste 7 Nordeste 0 982.8 -- 87
2020-11-10 19:00:00 13.8 4 Este 9 Este 0 982.6 -- 85
2020-11-10 18:00:00 16 5 Este 12 Este 0 982.6 -- 75
2020-11-10 17:00:00 16.8 9 Este 17 Este 0 982.6 -- 69
2020-11-10 16:00:00 16.6 10 Este 21 Sudeste 0 982.4 -- 71
2020-11-10 15:00:00 16.2 10 Este 20 Este 0 982.8 -- 75
2020-11-10 14:00:00 14.5 9 Este 18 Este 0 983.6 -- 80
2020-11-10 13:00:00 11.9 11 Este 19 Este 0 984.4 -- 86
2020-11-10 12:00:00 10.5 9 Este 19 Nordeste 0 984.8 -- 91
2020-11-10 11:00:00 10.3 9 Este 16 Nordeste 0 984.4 -- 92
2020-11-10 10:00:00 8.4 7 Este 12 Nordeste 0 984.4 -- 95
2020-11-10 09:00:00 7.7 5 Este 12 Nordeste 0 983.7 -- 94
2020-11-10 08:00:00 7.7 9 Nordeste 17 Nordeste 0 982.9 -- 94
2020-11-10 07:00:00 6.8 6 Este 10 Este 0 982.4 -- 94
2020-11-10 06:00:00 7.4 5 Este 10 Este 0 982.3 -- 93
2020-11-10 05:00:00 7.9 6 Este 8 Nordeste 0 981.9 -- 93
2020-11-10 04:00:00 8.2 4 Este 7 Nordeste 0 982 -- 93
2020-11-10 03:00:00 8.4 5 Este 7 Este 0 981.9 -- 93
2020-11-10 02:00:00 8.4 3 Este 5 Este 0 981.9 -- 92
2020-11-10 01:00:00 8.6 2 Oeste 4 Noroeste 0 981.9 -- 91
2020-11-10 00:00:00 9.5 0 Calma 7 Oeste 0 981.8 -- 91
2020-11-09 23:00:00 10.1 4 Oeste 6 Sur 0 981.8 -- 90
2020-11-09 22:00:00 11.5 3 Sur 10 Sur 0 981.3 -- 87
2020-11-09 21:00:00 11.6 0 Calma 4 Sur 0 981 -- 87
2020-11-09 20:00:00 13.2 0 Calma 8 Oeste 0 980.7 -- 84
2020-11-09 19:00:00 15.2 5 Oeste 11 Noroeste 0 980 -- 71
2020-11-09 18:00:00 17.7 6 Oeste 17 Oeste 0 979.6 -- 62
2020-11-09 17:00:00 18.3 12 Oeste 21 Oeste 0 979.2 -- 58
2020-11-09 16:00:00 18.7 8 Oeste 21 Oeste 0 979 -- 54
2020-11-09 15:00:00 18 10 Oeste 18 Oeste 0 979 -- 61
2020-11-09 14:00:00 17.3 8 Oeste 19 Oeste 0 979.4 -- 69
2020-11-09 13:00:00 17.2 7 Sudoeste 13 Sur 0 979.9 -- 71
2020-11-09 12:00:00 15 4 Este 9 Sudeste 0 980.3 -- 86
2020-11-09 11:00:00 13.9 4 Sudeste 10 Sudeste 0 980.1 -- 92
2020-11-09 10:00:00 12.9 5 Este 9 Nordeste 0.2 979.8 -- 93
2020-11-09 09:00:00 12 4 Este 10 Este 0 979.1 -- 93
2020-11-09 08:00:00 12.1 5 Este 11 Este 0 978.3 -- 93
2020-11-09 07:00:00 12.2 4 Este 9 Este 0.2 978 -- 93
2020-11-09 06:00:00 12.3 6 Nordeste 9 Nordeste 0.4 977.6 -- 93
2020-11-09 05:00:00 12.5 4 Este 15 Este 0.4 977.6 -- 93
2020-11-09 04:00:00 12.8 7 Este 17 Este 6.4 977.2 -- 92
2020-11-09 03:00:00 12.9 0 Calma 10 Sudeste 1.4 977.8 -- 91
2020-11-09 02:00:00 13 6 Este 10 Este 1.6 977.5 -- 91
2020-11-09 01:00:00 13 4 Norte 7 Norte 1 978.2 -- 91
2020-11-09 00:00:00 13.2 4 Norte 9 Sudeste 0.6 978 -- 90
2020-11-08 23:00:00 13.6 6 Nordeste 15 Norte 0.2 977.9 -- 87
2020-11-08 22:00:00 13.8 5 Norte 9 Norte 0.2 978 -- 85
2020-11-08 21:00:00 14.2 4 Nordeste 8 Este 0 977.7 -- 80
2020-11-08 20:00:00 14.3 3 Nordeste 5 Nordeste 0 977.6 -- 79
2020-11-08 19:00:00 15.2 3 Este 12 Nordeste 0 977.5 -- 72
2020-11-08 18:00:00 16.5 5 Este 12 Este 0 977.1 -- 67
2020-11-08 17:00:00 16.6 6 Este 13 Este 0 977.4 -- 67
2020-11-08 16:00:00 17.1 6 Este 14 Este 0 977.6 -- 65
2020-11-08 15:00:00 16.8 7 Este 15 Nordeste 0 977.8 -- 69
2020-11-08 14:00:00 15.9 8 Este 17 Este 0 978.7 -- 72
2020-11-08 13:00:00 15.1 10 Este 18 Este 0 979.5 -- 74
2020-11-08 12:00:00 13.9 10 Este 20 Este 0 980.1 -- 79
2020-11-08 11:00:00 12.9 9 Este 27 Este 0 980 -- 81
2020-11-08 10:00:00 10.8 9 Este 15 Nordeste 0 980.2 -- 90
2020-11-08 09:00:00 9.3 6 Este 13 Nordeste 0 979.9 -- 92
2020-11-08 08:00:00 9.4 8 Este 14 Este 0 979.4 -- 92
2020-11-08 07:00:00 9.8 8 Nordeste 13 Nordeste 0 979.5 -- 91
2020-11-08 06:00:00 9.8 5 Este 12 Nordeste 0 979.3 -- 91
2020-11-08 05:00:00 9.8 5 Este 12 Este 0 979.4 -- 90
2020-11-08 04:00:00 10.4 8 Este 14 Este 0 979.6 -- 90
2020-11-08 03:00:00 10.9 6 Este 10 Este 0 979.7 -- 89
2020-11-08 02:00:00 10.6 5 Este 10 Nordeste 0 979.8 -- 90
2020-11-08 01:00:00 10 5 Este 12 Nordeste 0 979.8 -- 91
2020-11-08 00:00:00 9.7 4 Este 9 Nordeste 0 979.7 -- 91
2020-11-07 23:00:00 9.8 3 Este 8 Nordeste 0 979.7 -- 90
2020-11-07 22:00:00 10.3 2 Este 5 Nordeste 0 979.3 -- 88
2020-11-07 21:00:00 10.6 0 Calma 6 Sudeste 0 979.2 -- 88
2020-11-07 20:00:00 11.9 3 Este 6 Sur 0 978.9 -- 83
2020-11-07 19:00:00 13.7 2 Sudeste 14 Oeste 0 978.3 -- 76
2020-11-07 18:00:00 16.3 7 Oeste 34 Oeste 0 977.6 -- 64
2020-11-07 17:00:00 17.1 22 Oeste 37 Oeste 0 977.2 -- 58
2020-11-07 16:00:00 17.5 23 Oeste 38 Oeste 0 976.7 -- 59
2020-11-07 15:00:00 16.4 21 Oeste 36 Oeste 0 976.3 -- 68
2020-11-07 14:00:00 16.8 20 Oeste 36 Oeste 0 975.9 -- 68
2020-11-07 13:00:00 15.8 17 Oeste 35 Sudoeste 0 975.7 -- 75
2020-11-07 12:00:00 14.3 9 Oeste 24 Oeste 0 975.6 -- 85
2020-11-07 11:00:00 13.5 17 Oeste 25 Oeste 0 974.7 -- 86
2020-11-07 10:00:00 13.5 12 Oeste 17 Oeste 0 973.5 -- 83
2020-11-07 09:00:00 13 8 Oeste 22 Oeste 0 972.1 -- 82
2020-11-07 08:00:00 13 11 Oeste 18 Oeste 0 971.3 -- 81
2020-11-07 07:00:00 13 3 Sudeste 19 Sudeste 0 970.2 -- 85
2020-11-07 06:00:00 12.8 2 Oeste 12 Sudoeste 0.2 970 -- 90
2020-11-07 05:00:00 13.2 3 Este 14 Noroeste 0 970.2 -- 88
2020-11-07 04:00:00 13.5 5 Este 18 Nordeste 0.4 970 -- 87
2020-11-07 03:00:00 13.9 13 Nordeste 22 Este 0 969.7 -- 82
2020-11-07 02:00:00 15 10 Nordeste 27 Nordeste 0 970.1 -- 73
2020-11-07 01:00:00 15.8 6 Sur 33 Sur 0 970.1 -- 69
2020-11-07 00:00:00 16.7 14 Sur 44 Sur 0.2 970.6 -- 64
2020-11-06 23:00:00 15.2 8 Este 29 Nordeste 0 970.8 -- 85
2020-11-06 22:00:00 15.2 8 Nordeste 18 Nordeste 0 970.6 -- 84
2020-11-06 21:00:00 15.2 6 Este 13 Nordeste 0 970 -- 88
2020-11-06 20:00:00 15.8 8 Este 17 Sudoeste 0.2 969.6 -- 86
2020-11-06 19:00:00 17.4 10 Oeste 32 Oeste 1.6 969.8 -- 76
2020-11-06 18:00:00 18.8 10 Este 25 Nordeste 0 968.2 -- 71
2020-11-06 17:00:00 19.2 12 Este 26 Este 0 968 -- 71
2020-11-06 16:00:00 19.1 15 Este 30 Este 0 968.3 -- 72
2020-11-06 15:00:00 18.9 14 Este 30 Nordeste 0 969.2 -- 72
2020-11-06 14:00:00 18.8 17 Este 33 Este 0 969.7 -- 72
2020-11-06 13:00:00 18.3 17 Este 33 Nordeste 0 970.4 -- 76
2020-11-06 12:00:00 16.9 18 Este 44 Nordeste 0 971.2 -- 79
2020-11-06 11:00:00 15.7 22 Este 40 Nordeste 0 971.1 -2 79
2020-11-06 10:00:00 14.8 17 Este 41 Este 0 972 -- 81
2020-11-06 09:00:00 13.9 18 Este 35 Este 0 972 -- 84
2020-11-06 08:00:00 13.6 13 Este 34 Este 0 973.1 -- 86
2020-11-06 07:00:00 13.3 12 Este 25 Nordeste 0.4 973.1 -- 89
2020-11-06 06:00:00 13.5 13 Este 36 Este 0.2 973.7 -- 87
2020-11-06 05:00:00 13.5 16 Este 33 Este 0 973.7 -- 87
2020-11-06 04:00:00 13.4 12 Este 33 Este 0.6 973.7 -- 88
2020-11-06 03:00:00 13.5 10 Este 35 Este 0 974 -- 87
2020-11-06 02:00:00 13.2 14 Este 32 Este 0 973.3 -- 89
2020-11-06 01:00:00 13.3 14 Este 31 Este 0 973.1 -- 89
2020-11-06 00:00:00 12.3 10 Este 25 Este 0 973.7 -- 91
2020-11-05 23:00:00 11.9 12 Este 23 Este 0 974 -- 90
2020-11-05 22:00:00 11.7 7 Este 23 Este 0 974.3 -- 91
2020-11-05 21:00:00 11.6 7 Este 24 Nordeste 0 973.9 -- 92
2020-11-05 20:00:00 11.8 13 Nordeste 21 Nordeste 0.4 973.2 -- 92
2020-11-05 19:00:00 11.8 6 Nordeste 13 Nordeste 3.6 974 -- 92
2020-11-05 18:00:00 12.4 6 Este 27 Sur 7 974.3 -- 90
2020-11-05 17:00:00 13.3 12 Este 36 Este 0.2 973.6 -- 90
2020-11-05 16:00:00 13.3 17 Este 35 Nordeste 0.4 972.6 -- 90
2020-11-05 15:00:00 13.1 15 Este 34 Nordeste 0.8 973.1 -- 89
2020-11-05 14:00:00 13.6 17 Este 45 Este 0 973.3 -- 84
2020-11-05 13:00:00 13.1 17 Este 46 Este 0 973.9 -- 83
2020-11-05 12:00:00 12.8 21 Este 51 Este 0 974.3 -- 81
2020-11-05 11:00:00 12 20 Este 44 Este 0 974.6 -- 84
2020-11-05 10:00:00 11.3 19 Este 46 Este 0 974.3 -- 86
2020-11-05 09:00:00 10.9 22 Este 50 Este 0.2 974.1 -- 88
2020-11-05 08:00:00 10.4 22 Este 58 Este 1.4 973.2 -- 90
2020-11-05 07:00:00 10.3 28 Este 49 Este 5 972.9 -- 91
2020-11-05 06:00:00 11.1 21 Este 49 Este 0.2 973.5 -- 83
2020-11-05 05:00:00 11 20 Este 43 Este 0.4 973.9 -- 83
2020-11-05 04:00:00 11.1 18 Este 43 Este 0 974.1 -- 83
2020-11-05 03:00:00 10.7 18 Este 35 Nordeste 0 973.4 -- 86
2020-11-05 02:00:00 10.2 15 Este 39 Este 0.6 974 -- 90
2020-11-05 01:00:00 9.9 19 Este 41 Este 1.6 974.3 -- 90
2020-11-05 00:00:00 10.9 20 Este 41 Este 0.2 974.2 -- 85
2020-11-04 23:00:00 10.8 17 Este 42 Este 0.2 973.6 -- 85
2020-11-04 22:00:00 10.8 7 Este 29 Este 8.8 973.9 -- 89
2020-11-04 21:00:00 11.4 13 Este 30 Nordeste 0.2 973.2 -- 87
2020-11-04 20:00:00 11.4 15 Este 32 Este 0 972.7 -- 87
2020-11-04 19:00:00 11.5 17 Este 36 Este 0.2 972.3 -- 84
2020-11-04 18:00:00 11 11 Este 33 Este 0.4 972.6 -- 86
2020-11-04 17:00:00 10.7 13 Este 36 Este 0.8 972.7 -- 85
2020-11-04 16:00:00 10.3 19 Este 48 Este 0.4 973 -- 84
2020-11-04 15:00:00 10 18 Este 41 Este 0.2 973.2 -- 86
2020-11-04 14:00:00 10.3 21 Este 44 Este 0.6 974.2 -- 83
2020-11-04 13:00:00 11.3 18 Este 45 Sudeste 0.4 974.8 -- 73
2020-11-04 12:00:00 11.5 20 Este 41 Este 0.2 975.1 -- 72
2020-11-04 11:00:00 12.2 19 Este 39 Este 0 975.6 -0.5 62
2020-11-04 10:00:00 11.6 13 Sudeste 40 Este 0 976.1 -- 64
2020-11-04 09:00:00 11.3 14 Este 34 Sudeste 0 975.8 -- 63
2020-11-04 08:00:00 11.2 15 Este 30 Este 0 976.1 -- 65
2020-11-04 07:00:00 11.5 12 Este 24 Este 0 976.7 -- 65
2020-11-04 06:00:00 11.7 13 Este 25 Sudeste 0 977.3 -- 65
2020-11-04 05:00:00 12 13 Este 27 Este 0 977.8 -- 66
2020-11-04 04:00:00 12.2 13 Este 28 Sudeste 0 978.4 -- 67
2020-11-04 03:00:00 12.7 14 Este 30 Este 0 978.9 -- 66
2020-11-04 02:00:00 13.1 13 Este 36 Este 0 979.7 -- 63
2020-11-04 01:00:00 13.7 19 Este 36 Este 0 980.6 -- 61
2020-11-04 00:00:00 13.8 16 Este 30 Este 0 980.9 -- 62
2020-11-03 23:00:00 13.9 15 Este 35 Sudeste 0 981.1 -- 66
2020-11-03 22:00:00 14.6 18 Este 36 Sudeste 0 981.5 -- 64
2020-11-03 21:00:00 15.1 18 Este 39 Este 0 981.5 -- 68
2020-11-03 20:00:00 16 16 Este 31 Este 0 981.4 -- 64
2020-11-03 19:00:00 16.9 8 Sudeste 15 Sudeste 0 980.9 -- 64
2020-11-03 18:00:00 18.1 7 Sudeste 19 Sudeste 0 980.7 -- 64
2020-11-03 17:00:00 19.1 10 Este 19 Este 0 980.2 -- 61
2020-11-03 16:00:00 18.8 11 Este 19 Sudeste 0 980.4 -- 65
2020-11-03 15:00:00 19 8 Sudeste 15 Sudeste 0 980.6 -- 70
2020-11-03 14:00:00 18 5 Este 11 Nordeste 0 980.8 -- 78
2020-11-03 13:00:00 17.4 6 Este 14 Este 0 981.2 -- 80
2020-11-03 12:00:00 16.3 3 Sudoeste 11 Este 0 981.4 -- 88
2020-11-03 11:00:00 15.2 4 Nordeste 14 Este 0.2 981.2 -- 91
2020-11-03 10:00:00 14.3 5 Nordeste 11 Nordeste 0 980.9 -- 93
2020-11-03 09:00:00 13.6 2 Este 6 Este 0 980 -- 93
2020-11-03 08:00:00 13.4 3 Este 8 Este 0 979.7 -- 93
2020-11-03 07:00:00 13.4 0 Calma 5 Norte 0 979.8 -- 92
2020-11-03 06:00:00 13.5 0 Calma 6 Sudeste 0 979.5 -- 92
2020-11-03 05:00:00 13.4 0 Calma 5 Sudeste 0 979.5 -- 92
2020-11-03 04:00:00 13.5 0 Calma 4 Norte 0 979.5 -- 92
2020-11-03 03:00:00 13.9 2 Sur 6 Sur 0 979.6 -- 91
2020-11-03 02:00:00 13.9 0 Calma 5 Noroeste 0 979.5 -- 91
2020-11-03 01:00:00 13.8 2 Noroeste 7 Sur 0 979.7 -- 91
2020-11-03 00:00:00 14.2 0 Calma 3 Nordeste 0 979.9 -- 90
2020-11-02 23:00:00 14.9 2 Norte 9 Sudoeste 0 980 -- 89
2020-11-02 22:00:00 15.7 6 Sudoeste 9 Sudoeste 0 979.9 -- 88
2020-11-02 21:00:00 15.9 3 Oeste 8 Oeste 0 980.1 -- 86
2020-11-02 20:00:00 16.6 4 Oeste 9 Oeste 0 979.7 -- 84
2020-11-02 19:00:00 17.2 6 Oeste 11 Oeste 0 979.3 -- 82
2020-11-02 18:00:00 18.3 6 Oeste 11 Oeste 0 979 -- 76
2020-11-02 17:00:00 19.5 5 Oeste 10 Noroeste 0 978.8 -- 70
2020-11-02 16:00:00 19.6 4 Oeste 8 Oeste 0 978.7 -- 69
2020-11-02 15:00:00 19 2 Noroeste 8 Sudeste 0 979.2 -- 67
2020-11-02 14:00:00 17.9 3 Este 10 Sudeste 0 980 -- 72
2020-11-02 13:00:00 16.9 5 Este 15 Este 0 980.8 -- 75
2020-11-02 12:00:00 15.3 5 Este 12 Este 0 981.2 -- 81
2020-11-02 11:00:00 14.2 6 Este 15 Este 0 981.2 -- 84
2020-11-02 10:00:00 13.3 6 Este 15 Nordeste 0 981 -- 87
2020-11-02 09:00:00 12.2 5 Este 14 Este 0 980.4 -- 90
2020-11-02 08:00:00 11.2 4 Este 10 Nordeste 0 980 -- 91
2020-11-02 07:00:00 11.1 6 Este 13 Nordeste 0 980.1 -- 90
2020-11-02 06:00:00 11.2 5 Este 12 Este 0 980.1 -- 91
2020-11-02 05:00:00 11.3 6 Este 12 Este 0 979.9 -- 91
2020-11-02 04:00:00 11.3 4 Este 9 Este 0 980 -- 92
2020-11-02 03:00:00 11.2 4 Este 6 Nordeste 0 980.1 -- 93
2020-11-02 02:00:00 10.9 3 Nordeste 6 Nordeste 0 980.2 -- 91
2020-11-02 01:00:00 11.2 3 Este 4 Este 0 980.5 -- 91
2020-11-02 00:00:00 11.4 0 Calma 5 Noroeste 0 980.8 -- 90